createdAt,value
2019-05-21T00:01:33.731Z,20.10
2019-05-21T00:06:38.093Z,20.10
2019-05-21T00:11:42.476Z,20.00
2019-05-21T00:16:46.816Z,20.00
2019-05-21T00:21:51.178Z,20.00
2019-05-21T00:26:55.611Z,20.00
2019-05-21T00:32:54.713Z,20.00
2019-05-21T00:38:53.955Z,20.00
2019-05-21T00:43:59.669Z,20.00
2019-05-21T00:49:04.040Z,19.90
2019-05-21T00:54:08.459Z,19.90
2019-05-21T00:59:12.832Z,19.90
2019-05-21T01:04:17.247Z,19.90
2019-05-21T01:09:21.843Z,19.90
2019-05-21T01:14:26.245Z,19.90
2019-05-21T01:19:30.610Z,19.90
2019-05-21T01:24:34.957Z,19.90
2019-05-21T01:29:39.338Z,19.90
2019-05-21T01:34:43.682Z,19.90
2019-05-21T01:39:48.038Z,19.90
2019-05-21T01:44:52.406Z,19.80
2019-05-21T01:49:56.824Z,19.80
2019-05-21T01:55:01.167Z,19.80
2019-05-21T02:00:07.471Z,19.80
2019-05-21T02:05:12.162Z,19.80
2019-05-21T02:10:16.684Z,19.80
2019-05-21T02:15:21.037Z,19.80
2019-05-21T02:20:25.393Z,19.80
2019-05-21T02:25:29.770Z,19.80
2019-05-21T02:30:34.118Z,19.80
2019-05-21T02:35:53.776Z,19.80
2019-05-21T02:40:44.693Z,19.70
2019-05-21T02:45:49.114Z,19.70
2019-05-21T02:50:53.536Z,19.70
2019-05-21T02:55:57.883Z,19.70
2019-05-21T03:01:21.882Z,19.70
2019-05-21T03:06:26.220Z,19.70
2019-05-21T03:11:30.576Z,19.70
2019-05-21T03:16:34.962Z,19.70
2019-05-21T03:21:39.318Z,19.70
2019-05-21T03:26:43.674Z,19.70
2019-05-21T03:31:48.027Z,19.60
2019-05-21T03:36:52.374Z,19.60
2019-05-21T03:41:56.998Z,19.60
2019-05-21T03:47:01.452Z,19.60
2019-05-21T03:52:05.869Z,19.60
2019-05-21T03:57:10.212Z,19.60
2019-05-21T04:02:14.571Z,19.60
2019-05-21T04:07:18.933Z,19.60
2019-05-21T04:12:23.299Z,19.60
2019-05-21T04:17:45.143Z,19.60
2019-05-21T04:22:53.472Z,19.60
2019-05-21T04:27:57.885Z,19.60
2019-05-21T04:33:02.232Z,19.50
2019-05-21T04:38:06.596Z,19.60
2019-05-21T04:43:10.953Z,19.60
2019-05-21T04:48:15.311Z,19.60
2019-05-21T04:53:19.678Z,19.60
2019-05-21T04:58:24.103Z,19.70
2019-05-21T05:03:28.456Z,19.70
2019-05-21T05:08:32.885Z,19.80
2019-05-21T05:13:37.306Z,19.80
2019-05-21T05:18:41.672Z,19.90
2019-05-21T05:23:46.095Z,20.00
2019-05-21T05:28:50.547Z,20.00
2019-05-21T05:33:54.927Z,20.10
2019-05-21T05:38:59.279Z,20.20
2019-05-21T05:44:03.644Z,20.30
2019-05-21T05:49:09.710Z,20.30
2019-05-21T05:54:14.147Z,20.40
2019-05-21T05:59:18.507Z,20.50
2019-05-21T06:04:22.893Z,20.60
2019-05-21T06:09:27.233Z,20.70
2019-05-21T06:14:31.582Z,20.80
2019-05-21T06:19:35.965Z,20.90
2019-05-21T06:24:40.326Z,20.90
2019-05-21T06:29:44.689Z,20.90
2019-05-21T06:34:49.038Z,21.00
2019-05-21T06:39:53.410Z,21.10
2019-05-21T06:44:57.854Z,21.10
2019-05-21T06:50:02.363Z,21.20
2019-05-21T06:55:07.360Z,21.30
2019-05-21T07:00:13.859Z,21.30
2019-05-21T07:05:18.323Z,21.40
2019-05-21T07:10:22.678Z,21.40
2019-05-21T07:15:27.021Z,21.40
2019-05-21T07:20:31.376Z,21.50
2019-05-21T07:25:35.732Z,21.50
2019-05-21T07:30:40.095Z,21.50
2019-05-21T07:35:44.454Z,21.50
2019-05-21T07:40:48.815Z,21.50
2019-05-21T07:45:53.196Z,21.60
2019-05-21T07:50:57.563Z,21.60
2019-05-21T07:56:01.901Z,21.60
2019-05-21T08:01:25.630Z,21.60
2019-05-21T08:06:30.036Z,21.60
2019-05-21T08:11:34.374Z,21.60
2019-05-21T08:16:38.732Z,21.60
2019-05-21T08:21:43.111Z,21.60
2019-05-21T08:26:47.465Z,21.60
2019-05-21T08:31:51.822Z,21.60
2019-05-21T08:36:56.179Z,21.60
2019-05-21T08:42:00.556Z,21.60
2019-05-21T08:47:04.917Z,21.60
2019-05-21T08:52:09.290Z,21.50
2019-05-21T08:57:13.903Z,21.50
2019-05-21T09:02:18.656Z,21.50
2019-05-21T09:07:24.200Z,21.50
2019-05-21T09:12:28.550Z,21.50
2019-05-21T09:17:32.903Z,21.40
2019-05-21T09:22:37.315Z,21.40
2019-05-21T09:27:41.734Z,21.40
2019-05-21T09:32:46.094Z,21.30
2019-05-21T09:37:50.567Z,21.30
2019-05-21T09:42:54.932Z,21.30
2019-05-21T09:47:59.290Z,21.40
2019-05-21T09:53:03.660Z,21.30
2019-05-21T09:58:12.600Z,21.40
2019-05-21T10:03:40.495Z,21.30
2019-05-21T10:08:44.843Z,21.40
2019-05-21T10:13:49.190Z,21.30
2019-05-21T10:18:53.571Z,21.30
2019-05-21T10:23:57.973Z,21.30
2019-05-21T10:29:02.377Z,21.30
2019-05-21T10:34:06.762Z,21.30
2019-05-21T10:39:11.271Z,21.30
2019-05-21T10:44:15.891Z,21.20
2019-05-21T10:49:20.245Z,21.30
2019-05-21T10:54:24.622Z,21.30
2019-05-21T10:59:29.041Z,21.30
2019-05-21T11:04:40.812Z,21.30
2019-05-21T11:09:45.246Z,21.30
2019-05-21T11:14:49.637Z,21.30
2019-05-21T11:19:54.025Z,21.40
2019-05-21T11:24:58.360Z,21.40
2019-05-21T11:30:02.781Z,21.50
2019-05-21T11:35:08.531Z,21.60
2019-05-21T11:40:13.930Z,21.70
2019-05-21T11:45:31.888Z,21.80
2019-05-21T11:50:28.111Z,21.90
2019-05-21T11:55:32.457Z,21.90
2019-05-21T12:00:37.102Z,22.00
2019-05-21T12:05:41.576Z,22.10
2019-05-21T12:10:46.367Z,22.10
2019-05-21T12:15:50.794Z,22.10
2019-05-21T12:20:55.145Z,22.10
2019-05-21T12:25:59.517Z,22.20
2019-05-21T12:31:03.888Z,22.20
2019-05-21T12:36:09.095Z,22.20
2019-05-21T12:41:14.146Z,22.20
2019-05-21T12:46:18.625Z,22.20
2019-05-21T12:51:22.998Z,22.20
2019-05-21T12:56:28.631Z,22.20
2019-05-21T13:01:33.876Z,22.20
2019-05-21T13:06:38.227Z,22.20
2019-05-21T13:11:42.607Z,22.20
2019-05-21T13:16:47.000Z,22.30
2019-05-21T13:21:51.344Z,22.30
2019-05-21T13:26:55.838Z,22.30
2019-05-21T13:32:00.270Z,22.30
2019-05-21T13:37:04.874Z,22.30
2019-05-21T13:42:09.377Z,22.30
2019-05-21T13:47:13.799Z,22.30
2019-05-21T13:52:18.250Z,22.30
2019-05-21T13:57:22.679Z,22.30
2019-05-21T14:02:27.539Z,22.30
2019-05-21T14:07:31.891Z,22.30
2019-05-21T14:12:36.272Z,22.30
2019-05-21T14:17:40.622Z,22.30
2019-05-21T14:22:45.000Z,22.30
2019-05-21T14:27:49.374Z,22.30
2019-05-21T14:32:53.725Z,22.30
2019-05-21T14:37:58.240Z,22.30
2019-05-21T14:43:02.778Z,22.20
2019-05-21T14:48:07.137Z,22.30
2019-05-21T14:53:11.602Z,22.30
2019-05-21T14:58:15.963Z,22.30
2019-05-21T15:03:25.171Z,22.20
2019-05-21T15:08:26.401Z,22.20
2019-05-21T15:13:30.777Z,22.20
2019-05-21T15:18:35.237Z,22.20
2019-05-21T15:23:40.352Z,22.20
2019-05-21T15:28:45.489Z,22.20
2019-05-21T15:33:49.832Z,22.10
2019-05-21T15:39:13.595Z,22.10
2019-05-21T15:44:18.126Z,22.10
2019-05-21T15:49:35.427Z,22.10
2019-05-21T15:54:28.611Z,22.10
2019-05-21T15:59:32.974Z,22.10
2019-05-21T16:04:37.349Z,22.10
2019-05-21T16:09:58.365Z,22.10
2019-05-21T16:15:03.018Z,22.00
2019-05-21T16:20:08.787Z,22.00
2019-05-21T16:25:13.788Z,22.00
2019-05-21T16:30:18.309Z,22.00
2019-05-21T16:35:22.679Z,22.00
2019-05-21T16:40:27.048Z,22.00
2019-05-21T16:45:31.399Z,22.00
2019-05-21T16:50:49.074Z,22.00
2019-05-21T16:55:53.450Z,21.90
2019-05-21T17:00:57.898Z,21.90
2019-05-21T17:06:02.323Z,21.90
2019-05-21T17:11:06.823Z,21.90
2019-05-21T17:16:11.193Z,21.90
2019-05-21T17:21:15.569Z,21.90
2019-05-21T17:26:19.961Z,21.90
2019-05-21T17:31:24.495Z,21.90
2019-05-21T17:36:28.889Z,21.90
2019-05-21T17:41:36.950Z,21.90
2019-05-21T17:46:41.325Z,21.90
2019-05-21T17:51:45.693Z,21.80
2019-05-21T17:56:50.100Z,21.80
2019-05-21T18:01:55.589Z,21.80
2019-05-21T18:07:00.176Z,21.80
2019-05-21T18:12:06.536Z,21.80
2019-05-21T18:17:12.920Z,21.70
2019-05-21T18:22:19.048Z,21.70
2019-05-21T18:27:24.985Z,21.70
2019-05-21T18:32:30.008Z,21.70
2019-05-21T18:37:35.242Z,21.60
2019-05-21T18:42:39.699Z,21.60
2019-05-21T18:47:45.284Z,21.60
2019-05-21T18:52:50.106Z,21.60
2019-05-21T18:57:55.381Z,21.50
2019-05-21T19:02:59.713Z,21.50
2019-05-21T19:08:04.175Z,21.50
2019-05-21T19:13:08.682Z,21.50
2019-05-21T19:18:13.059Z,21.50
2019-05-21T19:23:17.542Z,21.50
2019-05-21T19:28:21.904Z,21.50
2019-05-21T19:33:26.456Z,21.40
2019-05-21T19:38:30.948Z,21.40
2019-05-21T19:43:35.314Z,21.40
2019-05-21T19:48:39.680Z,21.40
2019-05-21T19:53:44.252Z,21.40
2019-05-21T19:58:48.691Z,21.40
2019-05-21T20:03:53.752Z,21.40
2019-05-21T20:09:00.409Z,21.40
2019-05-21T20:14:05.489Z,21.30
2019-05-21T20:19:12.043Z,21.30
2019-05-21T20:24:17.981Z,21.30
2019-05-21T20:29:23.285Z,21.30
2019-05-21T20:34:28.280Z,21.30
2019-05-21T20:39:34.311Z,21.30
2019-05-21T20:44:38.746Z,21.20
2019-05-21T20:49:44.276Z,21.20
2019-05-21T20:54:50.536Z,21.20
2019-05-21T20:59:54.905Z,21.20
2019-05-21T21:04:59.266Z,21.20
2019-05-21T21:10:04.479Z,21.20
2019-05-21T21:15:11.624Z,21.10
2019-05-21T21:20:16.713Z,21.10
2019-05-21T21:25:22.721Z,21.10
2019-05-21T21:30:27.354Z,21.10
2019-05-21T21:35:32.904Z,21.10
2019-05-21T21:40:37.447Z,21.10
2019-05-21T21:45:42.528Z,21.10
2019-05-21T21:50:47.302Z,21.00
2019-05-21T21:55:51.694Z,21.00
2019-05-21T22:01:26.572Z,21.00
2019-05-21T22:06:32.463Z,21.00
2019-05-21T22:11:37.188Z,20.90
2019-05-21T22:16:42.100Z,20.90
2019-05-21T22:21:46.529Z,20.90
2019-05-21T22:26:51.306Z,20.90
2019-05-21T22:31:55.691Z,20.90
2019-05-21T22:37:00.049Z,20.90
2019-05-21T22:42:05.112Z,20.90
2019-05-21T22:47:11.014Z,20.90
2019-05-21T22:52:15.452Z,20.90
2019-05-21T22:57:19.885Z,20.90
2019-05-21T23:02:26.153Z,20.90
2019-05-21T23:07:30.664Z,20.80
2019-05-21T23:12:35.385Z,20.80
2019-05-21T23:17:39.807Z,20.80
2019-05-21T23:22:45.041Z,20.80
2019-05-21T23:27:49.783Z,20.80
2019-05-21T23:32:54.435Z,20.80
2019-05-21T23:37:59.158Z,20.80
2019-05-21T23:43:04.172Z,20.70
2019-05-21T23:48:10.425Z,20.70
2019-05-21T23:53:16.015Z,20.70
2019-05-21T23:58:20.727Z,20.70
